sensor_id;sensor_type;location;lat;lon;timestamp;P1;durP1;ratioP1;P2;durP2;ratioP2
74231;SDS011;62590;52.430;4.902;2022-11-11T00:00:47;17.40;;;6.82;;
74231;SDS011;62590;52.430;4.902;2022-11-11T00:03:12;12.80;;;4.53;;
74231;SDS011;62590;52.430;4.902;2022-11-11T00:05:37;12.50;;;4.65;;
74231;SDS011;62590;52.430;4.902;2022-11-11T00:08:03;20.50;;;5.55;;
74231;SDS011;62590;52.430;4.902;2022-11-11T00:10:28;12.48;;;4.55;;
74231;SDS011;62590;52.430;4.902;2022-11-11T00:13:00;18.88;;;4.97;;
74231;SDS011;62590;52.430;4.902;2022-11-11T00:15:27;18.35;;;5.22;;
74231;SDS011;62590;52.430;4.902;2022-11-11T00:17:53;13.10;;;4.68;;
74231;SDS011;62590;52.430;4.902;2022-11-11T00:20:38;20.50;;;5.40;;
74231;SDS011;62590;52.430;4.902;2022-11-11T00:23:22;16.38;;;5.10;;
74231;SDS011;62590;52.430;4.902;2022-11-11T00:26:08;15.18;;;4.93;;
74231;SDS011;62590;52.430;4.902;2022-11-11T00:28:35;15.88;;;5.22;;
74231;SDS011;62590;52.430;4.902;2022-11-11T00:31:01;17.23;;;4.95;;
74231;SDS011;62590;52.430;4.902;2022-11-11T00:33:30;18.73;;;5.50;;
74231;SDS011;62590;52.430;4.902;2022-11-11T00:35:56;22.77;;;6.43;;
74231;SDS011;62590;52.430;4.902;2022-11-11T00:38:22;15.18;;;4.90;;
74231;SDS011;62590;52.430;4.902;2022-11-11T00:41:06;30.17;;;5.88;;
74231;SDS011;62590;52.430;4.902;2022-11-11T00:43:32;17.58;;;5.20;;
74231;SDS011;62590;52.430;4.902;2022-11-11T00:45:57;24.15;;;6.43;;
74231;SDS011;62590;52.430;4.902;2022-11-11T00:48:42;18.42;;;5.25;;
74231;SDS011;62590;52.430;4.902;2022-11-11T00:51:27;15.18;;;5.65;;
74231;SDS011;62590;52.430;4.902;2022-11-11T00:53:52;22.23;;;6.65;;
74231;SDS011;62590;52.430;4.902;2022-11-11T00:56:17;22.33;;;7.32;;
74231;SDS011;62590;52.430;4.902;2022-11-11T00:58:43;22.63;;;7.55;;
74231;SDS011;62590;52.430;4.902;2022-11-11T01:01:09;23.20;;;8.88;;
74231;SDS011;62590;52.430;4.902;2022-11-11T01:03:34;21.10;;;8.40;;
74231;SDS011;62590;52.430;4.902;2022-11-11T01:06:00;31.52;;;10.55;;
74231;SDS011;62590;52.430;4.902;2022-11-11T01:08:26;26.25;;;9.23;;
74231;SDS011;62590;52.430;4.902;2022-11-11T01:10:52;24.13;;;10.40;;
74231;SDS011;62590;52.430;4.902;2022-11-11T01:13:21;28.60;;;10.70;;
74231;SDS011;62590;52.430;4.902;2022-11-11T01:15:50;25.63;;;10.57;;
74231;SDS011;62590;52.430;4.902;2022-11-11T01:18:19;28.13;;;10.68;;
74231;SDS011;62590;52.430;4.902;2022-11-11T01:20:47;28.63;;;11.35;;
74231;SDS011;62590;52.430;4.902;2022-11-11T01:23:21;27.15;;;12.20;;
74231;SDS011;62590;52.430;4.902;2022-11-11T01:25:46;34.03;;;11.32;;
74231;SDS011;62590;52.430;4.902;2022-11-11T01:28:11;24.23;;;12.18;;
74231;SDS011;62590;52.430;4.902;2022-11-11T01:30:37;28.65;;;11.93;;
74231;SDS011;62590;52.430;4.902;2022-11-11T01:33:02;32.83;;;12.40;;
74231;SDS011;62590;52.430;4.902;2022-11-11T01:35:28;34.00;;;11.98;;
74231;SDS011;62590;52.430;4.902;2022-11-11T01:37:53;25.55;;;10.95;;
74231;SDS011;62590;52.430;4.902;2022-11-11T01:40:21;28.48;;;11.40;;
74231;SDS011;62590;52.430;4.902;2022-11-11T01:42:50;27.15;;;11.30;;
74231;SDS011;62590;52.430;4.902;2022-11-11T01:48:26;23.42;;;12.77;;
74231;SDS011;62590;52.430;4.902;2022-11-11T01:51:23;26.33;;;11.93;;
74231;SDS011;62590;52.430;4.902;2022-11-11T01:54:09;22.58;;;11.25;;
74231;SDS011;62590;52.430;4.902;2022-11-11T01:56:43;29.02;;;12.07;;
74231;SDS011;62590;52.430;4.902;2022-11-11T01:59:13;33.97;;;12.30;;
74231;SDS011;62590;52.430;4.902;2022-11-11T02:01:41;33.00;;;11.88;;
74231;SDS011;62590;52.430;4.902;2022-11-11T02:04:07;31.15;;;13.02;;
74231;SDS011;62590;52.430;4.902;2022-11-11T02:06:53;28.80;;;12.68;;
74231;SDS011;62590;52.430;4.902;2022-11-11T02:09:21;29.63;;;12.93;;
74231;SDS011;62590;52.430;4.902;2022-11-11T02:11:48;31.85;;;13.70;;
74231;SDS011;62590;52.430;4.902;2022-11-11T02:14:34;33.60;;;12.73;;
74231;SDS011;62590;52.430;4.902;2022-11-11T02:17:08;31.17;;;12.75;;
74231;SDS011;62590;52.430;4.902;2022-11-11T02:23:03;36.28;;;14.85;;
74231;SDS011;62590;52.430;4.902;2022-11-11T02:25:12;37.67;;;14.07;;
74231;SDS011;62590;52.430;4.902;2022-11-11T02:27:42;28.45;;;13.82;;
74231;SDS011;62590;52.430;4.902;2022-11-11T02:30:10;33.53;;;14.18;;
74231;SDS011;62590;52.430;4.902;2022-11-11T02:32:49;38.00;;;15.07;;
74231;SDS011;62590;52.430;4.902;2022-11-11T02:35:24;38.40;;;14.65;;
74231;SDS011;62590;52.430;4.902;2022-11-11T02:37:54;39.88;;;15.88;;
74231;SDS011;62590;52.430;4.902;2022-11-11T02:42:49;30.55;;;16.17;;
74231;SDS011;62590;52.430;4.902;2022-11-11T02:45:14;41.97;;;16.42;;
74231;SDS011;62590;52.430;4.902;2022-11-11T02:47:40;35.00;;;16.33;;
74231;SDS011;62590;52.430;4.902;2022-11-11T02:50:05;34.17;;;16.35;;
74231;SDS011;62590;52.430;4.902;2022-11-11T02:52:31;43.40;;;16.75;;
74231;SDS011;62590;52.430;4.902;2022-11-11T02:54:57;39.38;;;17.70;;
74231;SDS011;62590;52.430;4.902;2022-11-11T02:57:22;40.38;;;17.30;;
74231;SDS011;62590;52.430;4.902;2022-11-11T02:59:47;40.35;;;18.75;;
74231;SDS011;62590;52.430;4.902;2022-11-11T03:02:13;37.55;;;17.10;;
74231;SDS011;62590;52.430;4.902;2022-11-11T03:04:38;42.60;;;17.73;;
74231;SDS011;62590;52.430;4.902;2022-11-11T03:07:04;44.05;;;18.75;;
74231;SDS011;62590;52.430;4.902;2022-11-11T03:09:30;42.05;;;17.30;;
74231;SDS011;62590;52.430;4.902;2022-11-11T03:11:55;42.00;;;18.50;;
74231;SDS011;62590;52.430;4.902;2022-11-11T03:14:20;49.90;;;18.33;;
74231;SDS011;62590;52.430;4.902;2022-11-11T03:16:46;43.10;;;16.67;;
74231;SDS011;62590;52.430;4.902;2022-11-11T03:19:30;39.13;;;17.17;;
74231;SDS011;62590;52.430;4.902;2022-11-11T03:21:56;33.20;;;15.57;;
74231;SDS011;62590;52.430;4.902;2022-11-11T03:24:22;40.83;;;15.18;;
74231;SDS011;62590;52.430;4.902;2022-11-11T03:26:48;35.83;;;17.25;;
74231;SDS011;62590;52.430;4.902;2022-11-11T03:29:13;42.97;;;17.30;;
74231;SDS011;62590;52.430;4.902;2022-11-11T03:31:39;35.80;;;16.60;;
74231;SDS011;62590;52.430;4.902;2022-11-11T03:34:04;38.88;;;16.40;;
74231;SDS011;62590;52.430;4.902;2022-11-11T03:36:44;38.10;;;17.77;;
74231;SDS011;62590;52.430;4.902;2022-11-11T03:39:29;35.22;;;16.13;;
74231;SDS011;62590;52.430;4.902;2022-11-11T03:41:55;34.83;;;16.70;;
74231;SDS011;62590;52.430;4.902;2022-11-11T03:44:21;36.95;;;17.55;;
74231;SDS011;62590;52.430;4.902;2022-11-11T03:46:46;40.75;;;18.42;;
74231;SDS011;62590;52.430;4.902;2022-11-11T03:49:12;37.88;;;17.08;;
74231;SDS011;62590;52.430;4.902;2022-11-11T03:51:37;39.83;;;18.25;;
74231;SDS011;62590;52.430;4.902;2022-11-11T03:54:02;44.40;;;17.45;;
74231;SDS011;62590;52.430;4.902;2022-11-11T03:56:28;42.00;;;18.77;;
74231;SDS011;62590;52.430;4.902;2022-11-11T03:58:53;40.22;;;15.63;;
74231;SDS011;62590;52.430;4.902;2022-11-11T04:01:19;42.50;;;16.85;;
74231;SDS011;62590;52.430;4.902;2022-11-11T04:04:02;41.78;;;17.88;;
74231;SDS011;62590;52.430;4.902;2022-11-11T04:06:46;32.08;;;15.77;;
74231;SDS011;62590;52.430;4.902;2022-11-11T04:09:30;40.88;;;17.13;;
74231;SDS011;62590;52.430;4.902;2022-11-11T04:12:14;37.05;;;16.50;;
74231;SDS011;62590;52.430;4.902;2022-11-11T04:14:40;37.78;;;17.33;;
74231;SDS011;62590;52.430;4.902;2022-11-11T04:17:24;36.55;;;18.00;;
74231;SDS011;62590;52.430;4.902;2022-11-11T04:19:49;40.75;;;17.73;;
74231;SDS011;62590;52.430;4.902;2022-11-11T04:22:38;44.83;;;18.30;;
74231;SDS011;62590;52.430;4.902;2022-11-11T04:25:05;40.97;;;18.95;;
74231;SDS011;62590;52.430;4.902;2022-11-11T04:27:50;40.87;;;18.70;;
74231;SDS011;62590;52.430;4.902;2022-11-11T04:30:35;39.70;;;18.58;;
74231;SDS011;62590;52.430;4.902;2022-11-11T04:33:00;39.60;;;18.25;;
74231;SDS011;62590;52.430;4.902;2022-11-11T04:35:26;43.33;;;18.35;;
74231;SDS011;62590;52.430;4.902;2022-11-11T04:37:51;38.35;;;19.42;;
74231;SDS011;62590;52.430;4.902;2022-11-11T04:40:36;48.25;;;20.67;;
74231;SDS011;62590;52.430;4.902;2022-11-11T04:43:20;36.85;;;17.25;;
74231;SDS011;62590;52.430;4.902;2022-11-11T04:45:45;44.60;;;19.75;;
74231;SDS011;62590;52.430;4.902;2022-11-11T04:48:11;43.22;;;19.38;;
74231;SDS011;62590;52.430;4.902;2022-11-11T04:50:40;49.00;;;20.50;;
74231;SDS011;62590;52.430;4.902;2022-11-11T04:53:08;43.28;;;19.58;;
74231;SDS011;62590;52.430;4.902;2022-11-11T04:55:35;43.08;;;19.85;;
74231;SDS011;62590;52.430;4.902;2022-11-11T04:58:20;46.22;;;20.42;;
74231;SDS011;62590;52.430;4.902;2022-11-11T05:00:46;43.88;;;19.15;;
74231;SDS011;62590;52.430;4.902;2022-11-11T05:03:12;46.53;;;20.02;;
74231;SDS011;62590;52.430;4.902;2022-11-11T05:05:46;50.90;;;20.58;;
74231;SDS011;62590;52.430;4.902;2022-11-11T05:08:32;50.05;;;20.95;;
74231;SDS011;62590;52.430;4.902;2022-11-11T05:13:43;47.80;;;19.40;;
74231;SDS011;62590;52.430;4.902;2022-11-11T05:16:28;47.60;;;20.25;;
74231;SDS011;62590;52.430;4.902;2022-11-11T05:19:15;39.65;;;19.13;;
74231;SDS011;62590;52.430;4.902;2022-11-11T05:22:06;44.53;;;19.33;;
74231;SDS011;62590;52.430;4.902;2022-11-11T05:24:34;36.97;;;18.33;;
74231;SDS011;62590;52.430;4.902;2022-11-11T05:27:18;51.97;;;20.08;;
74231;SDS011;62590;52.430;4.902;2022-11-11T05:29:45;41.53;;;20.52;;
74231;SDS011;62590;52.430;4.902;2022-11-11T05:32:14;39.28;;;19.70;;
74231;SDS011;62590;52.430;4.902;2022-11-11T05:34:41;50.30;;;20.70;;
74231;SDS011;62590;52.430;4.902;2022-11-11T05:37:06;41.47;;;19.33;;
74231;SDS011;62590;52.430;4.902;2022-11-11T05:39:31;44.95;;;19.77;;
74231;SDS011;62590;52.430;4.902;2022-11-11T05:41:57;47.95;;;20.65;;
74231;SDS011;62590;52.430;4.902;2022-11-11T05:44:22;45.17;;;19.52;;
74231;SDS011;62590;52.430;4.902;2022-11-11T05:46:47;47.85;;;20.42;;
74231;SDS011;62590;52.430;4.902;2022-11-11T05:49:13;44.35;;;19.52;;
74231;SDS011;62590;52.430;4.902;2022-11-11T05:51:44;42.85;;;19.27;;
74231;SDS011;62590;52.430;4.902;2022-11-11T05:54:10;46.58;;;19.88;;
74231;SDS011;62590;52.430;4.902;2022-11-11T05:56:35;43.65;;;20.42;;
74231;SDS011;62590;52.430;4.902;2022-11-11T05:59:01;49.67;;;21.33;;
74231;SDS011;62590;52.430;4.902;2022-11-11T06:01:26;52.38;;;22.17;;
74231;SDS011;62590;52.430;4.902;2022-11-11T06:03:52;50.05;;;22.90;;
74231;SDS011;62590;52.430;4.902;2022-11-11T06:06:17;55.72;;;22.85;;
74231;SDS011;62590;52.430;4.902;2022-11-11T06:08:42;56.63;;;23.00;;
74231;SDS011;62590;52.430;4.902;2022-11-11T06:11:08;43.80;;;21.52;;
74231;SDS011;62590;52.430;4.902;2022-11-11T06:13:34;51.10;;;22.40;;
74231;SDS011;62590;52.430;4.902;2022-11-11T06:15:59;50.80;;;22.05;;
74231;SDS011;62590;52.430;4.902;2022-11-11T06:18:25;39.40;;;20.15;;
74231;SDS011;62590;52.430;4.902;2022-11-11T06:20:52;47.97;;;21.73;;
74231;SDS011;62590;52.430;4.902;2022-11-11T06:23:21;48.33;;;21.98;;
74231;SDS011;62590;52.430;4.902;2022-11-11T06:25:47;47.10;;;20.98;;
74231;SDS011;62590;52.430;4.902;2022-11-11T06:28:32;43.85;;;19.40;;
74231;SDS011;62590;52.430;4.902;2022-11-11T06:30:57;47.28;;;20.90;;
74231;SDS011;62590;52.430;4.902;2022-11-11T06:33:23;46.05;;;21.20;;
74231;SDS011;62590;52.430;4.902;2022-11-11T06:35:48;41.97;;;20.15;;
74231;SDS011;62590;52.430;4.902;2022-11-11T06:38:14;48.42;;;21.50;;
74231;SDS011;62590;52.430;4.902;2022-11-11T06:40:41;48.20;;;21.67;;
74231;SDS011;62590;52.430;4.902;2022-11-11T06:43:06;40.10;;;21.25;;
74231;SDS011;62590;52.430;4.902;2022-11-11T06:45:32;46.88;;;21.83;;
74231;SDS011;62590;52.430;4.902;2022-11-11T06:47:59;47.90;;;22.88;;
74231;SDS011;62590;52.430;4.902;2022-11-11T06:50:24;39.97;;;20.02;;
74231;SDS011;62590;52.430;4.902;2022-11-11T06:52:50;45.67;;;20.55;;
74231;SDS011;62590;52.430;4.902;2022-11-11T06:55:16;49.88;;;20.90;;
74231;SDS011;62590;52.430;4.902;2022-11-11T06:57:41;43.38;;;19.77;;
74231;SDS011;62590;52.430;4.902;2022-11-11T07:00:08;48.38;;;20.50;;
74231;SDS011;62590;52.430;4.902;2022-11-11T07:02:34;45.65;;;20.60;;
74231;SDS011;62590;52.430;4.902;2022-11-11T07:04:59;42.03;;;19.67;;
74231;SDS011;62590;52.430;4.902;2022-11-11T07:07:25;49.05;;;20.15;;
74231;SDS011;62590;52.430;4.902;2022-11-11T07:09:50;38.85;;;19.73;;
74231;SDS011;62590;52.430;4.902;2022-11-11T07:12:16;53.40;;;20.75;;
74231;SDS011;62590;52.430;4.902;2022-11-11T07:14:41;43.65;;;22.27;;
74231;SDS011;62590;52.430;4.902;2022-11-11T07:17:07;42.67;;;19.83;;
74231;SDS011;62590;52.430;4.902;2022-11-11T07:19:32;51.13;;;21.80;;
74231;SDS011;62590;52.430;4.902;2022-11-11T07:21:58;50.75;;;20.60;;
74231;SDS011;62590;52.430;4.902;2022-11-11T07:24:23;43.38;;;19.83;;
74231;SDS011;62590;52.430;4.902;2022-11-11T07:26:48;44.80;;;20.20;;
74231;SDS011;62590;52.430;4.902;2022-11-11T07:29:14;49.92;;;18.58;;
74231;SDS011;62590;52.430;4.902;2022-11-11T07:31:39;42.80;;;20.65;;
74231;SDS011;62590;52.430;4.902;2022-11-11T07:34:05;43.77;;;20.57;;
74231;SDS011;62590;52.430;4.902;2022-11-11T07:36:31;51.92;;;21.80;;
74231;SDS011;62590;52.430;4.902;2022-11-11T07:38:56;50.42;;;22.60;;
74231;SDS011;62590;52.430;4.902;2022-11-11T07:41:22;44.10;;;19.83;;
74231;SDS011;62590;52.430;4.902;2022-11-11T07:43:47;45.95;;;22.08;;
74231;SDS011;62590;52.430;4.902;2022-11-11T07:46:12;50.45;;;20.50;;
74231;SDS011;62590;52.430;4.902;2022-11-11T07:48:38;49.70;;;21.45;;
74231;SDS011;62590;52.430;4.902;2022-11-11T07:51:03;48.38;;;21.92;;
74231;SDS011;62590;52.430;4.902;2022-11-11T07:53:29;43.70;;;20.33;;
74231;SDS011;62590;52.430;4.902;2022-11-11T07:55:54;45.03;;;20.00;;
74231;SDS011;62590;52.430;4.902;2022-11-11T07:58:19;41.15;;;18.52;;
74231;SDS011;62590;52.430;4.902;2022-11-11T08:00:45;43.65;;;21.40;;
74231;SDS011;62590;52.430;4.902;2022-11-11T08:03:10;45.53;;;19.67;;
74231;SDS011;62590;52.430;4.902;2022-11-11T08:05:36;46.17;;;19.58;;
74231;SDS011;62590;52.430;4.902;2022-11-11T08:08:05;39.10;;;19.23;;
74231;SDS011;62590;52.430;4.902;2022-11-11T08:10:32;38.85;;;18.02;;
74231;SDS011;62590;52.430;4.902;2022-11-11T08:12:57;34.80;;;18.08;;
74231;SDS011;62590;52.430;4.902;2022-11-11T08:15:41;36.90;;;17.25;;
74231;SDS011;62590;52.430;4.902;2022-11-11T08:18:07;34.45;;;17.73;;
74231;SDS011;62590;52.430;4.902;2022-11-11T08:20:33;42.20;;;17.75;;
74231;SDS011;62590;52.430;4.902;2022-11-11T08:22:58;39.05;;;16.88;;
74231;SDS011;62590;52.430;4.902;2022-11-11T08:25:24;39.17;;;17.55;;
74231;SDS011;62590;52.430;4.902;2022-11-11T08:27:59;34.95;;;16.88;;
74231;SDS011;62590;52.430;4.902;2022-11-11T08:30:26;36.67;;;17.05;;
74231;SDS011;62590;52.430;4.902;2022-11-11T08:33:01;43.88;;;19.17;;
74231;SDS011;62590;52.430;4.902;2022-11-11T08:35:29;40.65;;;18.83;;
74231;SDS011;62590;52.430;4.902;2022-11-11T08:37:59;35.53;;;18.00;;
74231;SDS011;62590;52.430;4.902;2022-11-11T08:40:26;45.33;;;17.63;;
74231;SDS011;62590;52.430;4.902;2022-11-11T08:42:54;38.75;;;18.52;;
74231;SDS011;62590;52.430;4.902;2022-11-11T08:45:20;39.33;;;18.38;;
74231;SDS011;62590;52.430;4.902;2022-11-11T08:47:45;36.50;;;17.67;;
74231;SDS011;62590;52.430;4.902;2022-11-11T08:50:11;36.75;;;19.35;;
74231;SDS011;62590;52.430;4.902;2022-11-11T08:52:36;40.08;;;19.58;;
74231;SDS011;62590;52.430;4.902;2022-11-11T08:55:02;37.65;;;18.52;;
74231;SDS011;62590;52.430;4.902;2022-11-11T08:57:27;41.30;;;19.30;;
74231;SDS011;62590;52.430;4.902;2022-11-11T08:59:53;45.97;;;19.17;;
74231;SDS011;62590;52.430;4.902;2022-11-11T09:02:18;43.58;;;20.13;;
74231;SDS011;62590;52.430;4.902;2022-11-11T09:04:43;40.65;;;19.98;;
74231;SDS011;62590;52.430;4.902;2022-11-11T09:07:09;42.00;;;19.42;;
74231;SDS011;62590;52.430;4.902;2022-11-11T09:09:35;44.88;;;21.10;;
74231;SDS011;62590;52.430;4.902;2022-11-11T09:12:00;41.10;;;19.27;;
74231;SDS011;62590;52.430;4.902;2022-11-11T09:14:26;42.60;;;20.88;;
74231;SDS011;62590;52.430;4.902;2022-11-11T09:16:51;46.22;;;21.35;;
74231;SDS011;62590;52.430;4.902;2022-11-11T09:19:17;45.65;;;20.13;;
74231;SDS011;62590;52.430;4.902;2022-11-11T09:21:42;40.65;;;20.95;;
74231;SDS011;62590;52.430;4.902;2022-11-11T09:24:08;49.80;;;21.45;;
74231;SDS011;62590;52.430;4.902;2022-11-11T09:26:33;46.60;;;22.33;;
74231;SDS011;62590;52.430;4.902;2022-11-11T09:28:59;40.83;;;19.83;;
74231;SDS011;62590;52.430;4.902;2022-11-11T09:31:24;43.83;;;20.50;;
74231;SDS011;62590;52.430;4.902;2022-11-11T09:33:50;46.08;;;20.00;;
74231;SDS011;62590;52.430;4.902;2022-11-11T09:36:16;40.47;;;19.13;;
74231;SDS011;62590;52.430;4.902;2022-11-11T09:38:41;38.25;;;18.80;;
74231;SDS011;62590;52.430;4.902;2022-11-11T09:44:00;45.00;;;20.48;;
74231;SDS011;62590;52.430;4.902;2022-11-11T09:49:09;44.72;;;21.30;;
74231;SDS011;62590;52.430;4.902;2022-11-11T09:51:57;43.65;;;20.67;;
74231;SDS011;62590;52.430;4.902;2022-11-11T09:54:33;43.03;;;21.45;;
74231;SDS011;62590;52.430;4.902;2022-11-11T09:57:07;45.63;;;21.70;;
74231;SDS011;62590;52.430;4.902;2022-11-11T09:59:41;46.83;;;21.58;;
74231;SDS011;62590;52.430;4.902;2022-11-11T10:02:14;43.67;;;20.23;;
74231;SDS011;62590;52.430;4.902;2022-11-11T10:04:56;51.75;;;21.05;;
74231;SDS011;62590;52.430;4.902;2022-11-11T10:12:59;49.58;;;23.10;;
74231;SDS011;62590;52.430;4.902;2022-11-11T10:15:34;43.45;;;21.30;;
74231;SDS011;62590;52.430;4.902;2022-11-11T10:18:13;43.47;;;20.40;;
74231;SDS011;62590;52.430;4.902;2022-11-11T10:21:03;42.50;;;21.45;;
74231;SDS011;62590;52.430;4.902;2022-11-11T10:23:36;46.47;;;20.63;;
74231;SDS011;62590;52.430;4.902;2022-11-11T10:26:06;43.97;;;21.80;;
74231;SDS011;62590;52.430;4.902;2022-11-11T10:28:40;50.72;;;22.15;;
74231;SDS011;62590;52.430;4.902;2022-11-11T10:31:15;43.30;;;21.35;;
74231;SDS011;62590;52.430;4.902;2022-11-11T10:33:51;44.28;;;21.30;;
74231;SDS011;62590;52.430;4.902;2022-11-11T10:36:19;49.72;;;21.80;;
74231;SDS011;62590;52.430;4.902;2022-11-11T10:38:52;50.60;;;22.00;;
74231;SDS011;62590;52.430;4.902;2022-11-11T10:41:25;40.88;;;20.10;;
74231;SDS011;62590;52.430;4.902;2022-11-11T10:43:57;45.90;;;21.33;;
74231;SDS011;62590;52.430;4.902;2022-11-11T10:46:26;36.40;;;18.90;;
74231;SDS011;62590;52.430;4.902;2022-11-11T10:49:05;41.97;;;20.33;;
74231;SDS011;62590;52.430;4.902;2022-11-11T10:51:36;43.58;;;21.02;;
74231;SDS011;62590;52.430;4.902;2022-11-11T10:54:09;41.83;;;21.38;;
74231;SDS011;62590;52.430;4.902;2022-11-11T10:59:20;46.83;;;21.25;;
74231;SDS011;62590;52.430;4.902;2022-11-11T11:01:48;41.40;;;20.10;;
74231;SDS011;62590;52.430;4.902;2022-11-11T11:04:32;45.38;;;21.05;;
74231;SDS011;62590;52.430;4.902;2022-11-11T11:07:04;40.15;;;18.80;;
74231;SDS011;62590;52.430;4.902;2022-11-11T11:12:25;40.40;;;19.08;;
74231;SDS011;62590;52.430;4.902;2022-11-11T11:14:58;42.05;;;20.65;;
74231;SDS011;62590;52.430;4.902;2022-11-11T11:17:29;38.13;;;18.88;;
74231;SDS011;62590;52.430;4.902;2022-11-11T11:20:14;40.38;;;18.77;;
74231;SDS011;62590;52.430;4.902;2022-11-11T11:22:54;39.00;;;19.95;;
74231;SDS011;62590;52.430;4.902;2022-11-11T11:25:23;52.88;;;25.23;;
74231;SDS011;62590;52.430;4.902;2022-11-11T11:27:50;40.80;;;19.60;;
74231;SDS011;62590;52.430;4.902;2022-11-11T11:30:22;32.67;;;16.50;;
74231;SDS011;62590;52.430;4.902;2022-11-11T11:32:59;34.80;;;17.80;;
74231;SDS011;62590;52.430;4.902;2022-11-11T11:38:05;35.70;;;17.75;;
74231;SDS011;62590;52.430;4.902;2022-11-11T11:43:31;38.17;;;17.88;;
74231;SDS011;62590;52.430;4.902;2022-11-11T11:46:02;34.45;;;17.52;;
74231;SDS011;62590;52.430;4.902;2022-11-11T11:51:17;33.28;;;16.77;;
74231;SDS011;62590;52.430;4.902;2022-11-11T11:56:56;34.72;;;17.27;;
74231;SDS011;62590;52.430;4.902;2022-11-11T12:08:01;33.10;;;16.38;;
74231;SDS011;62590;52.430;4.902;2022-11-11T12:16:30;36.35;;;16.30;;
74231;SDS011;62590;52.430;4.902;2022-11-11T12:21:16;40.03;;;17.65;;
74231;SDS011;62590;52.430;4.902;2022-11-11T12:26:20;36.80;;;17.20;;
74231;SDS011;62590;52.430;4.902;2022-11-11T12:29:04;29.95;;;16.13;;
74231;SDS011;62590;52.430;4.902;2022-11-11T12:31:36;34.45;;;17.52;;
74231;SDS011;62590;52.430;4.902;2022-11-11T12:34:32;31.50;;;15.13;;
74231;SDS011;62590;52.430;4.902;2022-11-11T12:37:16;28.55;;;14.68;;
74231;SDS011;62590;52.430;4.902;2022-11-11T12:43:06;37.97;;;17.45;;
74231;SDS011;62590;52.430;4.902;2022-11-11T12:46:08;31.48;;;16.25;;
74231;SDS011;62590;52.430;4.902;2022-11-11T12:48:32;34.80;;;15.35;;
74231;SDS011;62590;52.430;4.902;2022-11-11T12:53:41;37.35;;;17.58;;
74231;SDS011;62590;52.430;4.902;2022-11-11T12:58:44;41.00;;;17.40;;
74231;SDS011;62590;52.430;4.902;2022-11-11T13:01:19;38.50;;;17.50;;
74231;SDS011;62590;52.430;4.902;2022-11-11T13:14:56;36.17;;;16.58;;
74231;SDS011;62590;52.430;4.902;2022-11-11T13:19:55;34.50;;;16.25;;
74231;SDS011;62590;52.430;4.902;2022-11-11T13:22:24;34.20;;;15.43;;
74231;SDS011;62590;52.430;4.902;2022-11-11T13:24:54;33.85;;;16.65;;
74231;SDS011;62590;52.430;4.902;2022-11-11T13:27:31;30.75;;;15.18;;
74231;SDS011;62590;52.430;4.902;2022-11-11T13:30:16;38.95;;;16.13;;
74231;SDS011;62590;52.430;4.902;2022-11-11T13:33:07;35.33;;;16.98;;
74231;SDS011;62590;52.430;4.902;2022-11-11T13:38:08;36.38;;;17.83;;
74231;SDS011;62590;52.430;4.902;2022-11-11T13:40:46;30.70;;;15.68;;
74231;SDS011;62590;52.430;4.902;2022-11-11T13:43:19;36.88;;;16.83;;
74231;SDS011;62590;52.430;4.902;2022-11-11T13:45:53;30.85;;;16.08;;
74231;SDS011;62590;52.430;4.902;2022-11-11T13:50:47;32.38;;;16.70;;
74231;SDS011;62590;52.430;4.902;2022-11-11T13:55:52;37.95;;;19.13;;
74231;SDS011;62590;52.430;4.902;2022-11-11T13:58:31;35.13;;;17.15;;
74231;SDS011;62590;52.430;4.902;2022-11-11T14:01:07;33.72;;;16.95;;
74231;SDS011;62590;52.430;4.902;2022-11-11T14:03:35;35.50;;;17.23;;
74231;SDS011;62590;52.430;4.902;2022-11-11T14:13:54;37.15;;;16.73;;
74231;SDS011;62590;52.430;4.902;2022-11-11T14:21:57;39.33;;;16.10;;
74231;SDS011;62590;52.430;4.902;2022-11-11T14:24:43;32.22;;;15.13;;
74231;SDS011;62590;52.430;4.902;2022-11-11T14:29:37;36.00;;;17.13;;
74231;SDS011;62590;52.430;4.902;2022-11-11T14:40:10;36.80;;;14.65;;
74231;SDS011;62590;52.430;4.902;2022-11-11T14:47:54;34.63;;;15.07;;
74231;SDS011;62590;52.430;4.902;2022-11-11T14:53:01;36.63;;;15.50;;
74231;SDS011;62590;52.430;4.902;2022-11-11T14:55:37;35.72;;;16.17;;
74231;SDS011;62590;52.430;4.902;2022-11-11T14:58:25;34.13;;;15.45;;
74231;SDS011;62590;52.430;4.902;2022-11-11T15:01:14;29.92;;;14.57;;
74231;SDS011;62590;52.430;4.902;2022-11-11T15:03:46;26.40;;;13.57;;
74231;SDS011;62590;52.430;4.902;2022-11-11T15:06:32;32.33;;;14.38;;
74231;SDS011;62590;52.430;4.902;2022-11-11T15:23:34;22.48;;;11.10;;
74231;SDS011;62590;52.430;4.902;2022-11-11T15:26:49;23.33;;;10.98;;
74231;SDS011;62590;52.430;4.902;2022-11-11T15:29:37;29.10;;;11.48;;
74231;SDS011;62590;52.430;4.902;2022-11-11T15:32:21;23.00;;;10.43;;
74231;SDS011;62590;52.430;4.902;2022-11-11T15:37:50;25.10;;;10.75;;
74231;SDS011;62590;52.430;4.902;2022-11-11T15:40:18;22.27;;;10.07;;
74231;SDS011;62590;52.430;4.902;2022-11-11T15:42:45;21.17;;;9.73;;
74231;SDS011;62590;52.430;4.902;2022-11-11T15:47:41;22.20;;;11.00;;
74231;SDS011;62590;52.430;4.902;2022-11-11T15:50:17;23.85;;;10.20;;
74231;SDS011;62590;52.430;4.902;2022-11-11T15:52:54;22.27;;;9.07;;
74231;SDS011;62590;52.430;4.902;2022-11-11T15:55:22;24.40;;;10.25;;
74231;SDS011;62590;52.430;4.902;2022-11-11T15:57:49;24.17;;;10.00;;
74231;SDS011;62590;52.430;4.902;2022-11-11T16:00:23;19.77;;;9.48;;
74231;SDS011;62590;52.430;4.902;2022-11-11T16:02:49;19.88;;;9.68;;
74231;SDS011;62590;52.430;4.902;2022-11-11T16:05:23;20.45;;;8.98;;
74231;SDS011;62590;52.430;4.902;2022-11-11T16:08:00;18.20;;;8.30;;
74231;SDS011;62590;52.430;4.902;2022-11-11T16:10:33;23.55;;;9.10;;
74231;SDS011;62590;52.430;4.902;2022-11-11T16:13:17;21.20;;;9.65;;
74231;SDS011;62590;52.430;4.902;2022-11-11T16:15:57;24.00;;;9.63;;
74231;SDS011;62590;52.430;4.902;2022-11-11T16:18:49;21.90;;;9.10;;
74231;SDS011;62590;52.430;4.902;2022-11-11T16:21:20;20.52;;;8.70;;
74231;SDS011;62590;52.430;4.902;2022-11-11T16:23:52;17.05;;;8.85;;
74231;SDS011;62590;52.430;4.902;2022-11-11T16:26:18;17.63;;;9.02;;
74231;SDS011;62590;52.430;4.902;2022-11-11T16:28:47;23.83;;;8.68;;
74231;SDS011;62590;52.430;4.902;2022-11-11T16:34:00;21.52;;;9.15;;
74231;SDS011;62590;52.430;4.902;2022-11-11T16:37:07;22.23;;;9.23;;
74231;SDS011;62590;52.430;4.902;2022-11-11T16:39:34;19.27;;;8.30;;
74231;SDS011;62590;52.430;4.902;2022-11-11T16:42:01;22.95;;;8.38;;
74231;SDS011;62590;52.430;4.902;2022-11-11T16:44:33;22.35;;;8.07;;
74231;SDS011;62590;52.430;4.902;2022-11-11T16:52:54;25.10;;;8.25;;
74231;SDS011;62590;52.430;4.902;2022-11-11T16:57:55;16.30;;;7.18;;
74231;SDS011;62590;52.430;4.902;2022-11-11T17:00:23;25.85;;;7.97;;
74231;SDS011;62590;52.430;4.902;2022-11-11T17:03:09;12.80;;;7.22;;
74231;SDS011;62590;52.430;4.902;2022-11-11T17:05:48;14.85;;;7.70;;
74231;SDS011;62590;52.430;4.902;2022-11-11T17:11:04;22.52;;;8.25;;
74231;SDS011;62590;52.430;4.902;2022-11-11T17:13:34;23.55;;;8.15;;
74231;SDS011;62590;52.430;4.902;2022-11-11T17:16:01;20.02;;;7.82;;
74231;SDS011;62590;52.430;4.902;2022-11-11T17:18:29;18.42;;;8.20;;